Time,TemperatureF,DewpointF,PressureIn,WindDirection,WindDirectionDegrees,WindSpeedMPH,WindSpeedGustMPH,Humidity,HourlyPrecipIn,Conditions,Clouds,dailyrainin,SolarRadiationWatts/m^2,SoftwareType,DateUTC
2013-03-19 00:04:00,54.3,43.2,29.99,NNE,15,3.0,4.0,66,0.00,,---,0.00,0.00,VWS V14.00,2013-03-19 05:04:00,
2013-03-19 00:13:00,54.5,43.4,29.99,NNE,27,2.0,6.0,66,0.00,,---,0.00,0.00,VWS V14.00,2013-03-19 05:13:00,
2013-03-19 00:21:00,54.4,43.3,29.99,NNE,29,1.0,6.0,66,0.00,,---,0.00,0.00,VWS V14.00,2013-03-19 05:21:00,
2013-03-19 00:29:00,54.1,42.6,29.99,NE,38,3.0,6.0,65,0.00,,---,0.00,0.00,VWS V14.00,2013-03-19 05:29:00,
2013-03-19 00:34:00,53.7,41.8,29.98,NNE,20,2.0,6.0,64,0.00,,---,0.00,0.00,VWS V14.00,2013-03-19 05:34:00,
2013-03-19 00:41:00,53.3,41.5,29.98,NNE,13,4.0,4.0,64,0.00,,---,0.00,0.00,VWS V14.00,2013-03-19 05:41:00,
2013-03-19 00:49:00,53.2,41.0,29.99,NE,52,0.0,4.0,63,0.00,,---,0.00,0.00,VWS V14.00,2013-03-19 05:49:00,
2013-03-19 00:57:00,53.1,41.3,29.99,NE,36,0.0,4.0,64,0.00,,---,0.00,0.00,VWS V14.00,2013-03-19 05:57:00,
2013-03-19 01:04:00,52.8,41.8,29.99,NNE,22,2.0,4.0,66,0.00,,---,0.00,0.00,VWS V14.00,2013-03-19 06:04:00,
2013-03-19 01:09:00,52.6,41.6,29.99,NNE,22,0.0,2.0,66,0.00,,---,0.00,0.00,VWS V14.00,2013-03-19 06:09:00,
2013-03-19 01:17:00,52.7,40.9,29.99,NE,44,2.0,3.0,64,0.00,,---,0.00,0.00,VWS V14.00,2013-03-19 06:17:00,
2013-03-19 01:25:00,52.7,42.1,29.99,NE,40,2.0,3.0,67,0.00,,---,0.00,0.00,VWS V14.00,2013-03-19 06:25:00,
2013-03-19 01:33:00,52.4,41.4,29.99,NE,47,0.0,3.0,66,0.00,,---,0.00,0.00,VWS V14.00,2013-03-19 06:33:00,
2013-03-19 01:41:00,52.3,41.7,29.99,ENE,70,1.0,3.0,67,0.00,,---,0.00,0.00,VWS V14.00,2013-03-19 06:41:00,
2013-03-19 01:49:00,52.1,41.9,29.98,ENE,66,4.0,4.0,68,0.00,,---,0.00,0.00,VWS V14.00,2013-03-19 06:49:00,
2013-03-19 01:58:00,51.8,41.6,29.98,NE,36,0.0,6.0,68,0.00,,---,0.00,0.00,VWS V14.00,2013-03-19 06:58:00,
2013-03-19 02:04:00,51.4,41.2,29.99,NNE,21,3.0,6.0,68,0.00,,---,0.00,0.00,VWS V14.00,2013-03-19 07:04:00,
2013-03-19 02:10:00,51.6,41.8,29.99,NE,39,2.0,4.0,69,0.00,,---,0.00,0.00,VWS V14.00,2013-03-19 07:10:00,
2013-03-19 02:18:00,51.7,41.9,29.99,NE,37,1.0,4.0,69,0.00,,---,0.00,0.00,VWS V14.00,2013-03-19 07:18:00,
2013-03-19 02:26:00,51.6,41.8,29.99,NE,40,2.0,4.0,69,0.00,,---,0.00,0.00,VWS V14.00,2013-03-19 07:26:00,
2013-03-19 02:34:00,51.4,41.6,29.98,NE,36,0.0,4.0,69,0.00,,---,0.00,0.00,VWS V14.00,2013-03-19 07:34:00,
2013-03-19 02:42:00,51.5,42.0,29.98,NE,53,0.0,4.0,70,0.00,,---,0.00,0.00,VWS V14.00,2013-03-19 07:42:00,
2013-03-19 02:50:00,51.4,42.3,29.98,ENE,74,4.0,4.0,71,0.00,,---,0.00,0.00,VWS V14.00,2013-03-19 07:50:00,
2013-03-19 02:58:00,51.3,42.6,29.98,ENE,73,2.0,4.0,72,0.00,,---,0.00,0.00,VWS V14.00,2013-03-19 07:58:00,
2013-03-19 03:04:00,51.2,41.8,29.97,NE,52,2.0,5.0,70,0.00,,---,0.00,0.00,VWS V14.00,2013-03-19 08:04:00,
2013-03-19 03:10:00,51.2,43.2,29.97,ENE,74,4.0,10.0,74,0.00,,---,0.00,0.00,VWS V14.00,2013-03-19 08:10:00,
2013-03-19 03:18:00,51.2,43.2,29.96,East,80,3.0,10.0,74,0.00,,---,0.00,0.00,VWS V14.00,2013-03-19 08:18:00,
2013-03-19 03:26:00,51.1,42.8,29.96,East,79,2.0,10.0,73,0.00,,---,0.00,0.00,VWS V14.00,2013-03-19 08:26:00,
2013-03-19 03:34:00,50.9,42.9,29.95,ENE,75,3.0,10.0,74,0.00,,---,0.00,0.00,VWS V14.00,2013-03-19 08:34:00,
2013-03-19 03:43:00,50.7,43.1,29.95,ENE,78,4.0,6.0,75,0.00,,---,0.00,0.00,VWS V14.00,2013-03-19 08:43:00,
2013-03-19 03:51:00,50.5,42.9,29.95,East,81,2.0,7.0,75,0.00,,---,0.00,0.00,VWS V14.00,2013-03-19 08:51:00,
2013-03-19 03:59:00,50.3,43.0,29.95,ESE,105,3.0,7.0,76,0.00,,---,0.00,0.00,VWS V14.00,2013-03-19 08:59:00,
2013-03-19 04:04:00,50.3,43.0,29.94,ESE,106,3.0,7.0,76,0.00,,---,0.00,0.00,VWS V14.00,2013-03-19 09:04:00,
2013-03-19 04:11:00,49.9,42.0,29.94,East,101,3.0,7.0,74,0.00,,---,0.00,0.00,VWS V14.00,2013-03-19 09:11:00,
2013-03-19 04:19:00,49.5,41.9,29.93,East,96,2.0,7.0,75,0.00,,---,0.00,0.00,VWS V14.00,2013-03-19 09:19:00,
2013-03-19 04:27:00,49.6,42.7,29.93,East,97,3.0,7.0,77,0.00,,---,0.00,0.00,VWS V14.00,2013-03-19 09:27:00,
2013-03-19 04:34:00,49.7,42.1,29.93,East,98,2.0,7.0,75,0.00,,---,0.00,0.00,VWS V14.00,2013-03-19 09:34:00,
2013-03-19 04:40:00,49.7,42.1,29.93,East,101,3.0,4.0,75,0.00,,---,0.00,0.00,VWS V14.00,2013-03-19 09:40:00,
2013-03-19 04:48:00,50.0,43.1,29.93,ENE,76,1.0,4.0,77,0.00,,---,0.00,0.00,VWS V14.00,2013-03-19 09:48:00,
2013-03-19 05:00:00,50.6,43.0,29.94,East,98,1.0,5.0,75,0.00,,---,0.00,0.00,VWS V14.00,2013-03-19 10:00:00,
2013-03-19 05:08:00,50.9,43.3,29.95,ENE,72,5.0,5.0,75,0.00,,---,0.00,0.00,VWS V14.00,2013-03-19 10:08:00,
2013-03-19 05:16:00,51.1,43.1,29.95,ENE,76,4.0,5.0,74,0.00,,---,0.00,0.00,VWS V14.00,2013-03-19 10:16:00,
2013-03-19 05:24:00,51.2,42.9,29.97,ENE,70,3.0,7.0,73,0.00,,---,0.00,0.00,VWS V14.00,2013-03-19 10:24:00,
2013-03-19 05:32:00,51.2,43.2,29.97,ENE,68,2.0,7.0,74,0.00,,---,0.00,0.00,VWS V14.00,2013-03-19 10:32:00,
2013-03-19 05:40:00,51.3,44.0,29.98,ENE,71,4.0,5.0,76,0.00,,---,0.00,0.00,VWS V14.00,2013-03-19 10:40:00,
2013-03-19 05:49:00,51.4,43.4,29.98,ENE,78,4.0,6.0,74,0.00,,---,0.00,0.00,VWS V14.00,2013-03-19 10:49:00,
2013-03-19 05:57:00,51.5,43.8,29.98,ENE,71,5.0,6.0,75,0.00,,---,0.00,0.00,VWS V14.00,2013-03-19 10:57:00,
2013-03-19 06:04:00,51.4,43.8,29.99,ENE,65,5.0,6.0,75,0.00,,---,0.00,0.00,VWS V14.00,2013-03-19 11:04:00,
2013-03-19 06:13:00,51.3,43.7,29.99,ENE,72,8.0,8.0,75,0.00,,---,0.00,0.00,VWS V14.00,2013-03-19 11:13:00,
2013-03-19 06:21:00,51.0,43.4,30.00,ENE,68,1.0,8.0,75,0.00,,---,0.00,0.00,VWS V14.00,2013-03-19 11:21:00,
2013-03-19 06:29:00,50.6,43.3,30.00,ENE,72,4.0,8.0,76,0.00,,---,0.00,0.00,VWS V14.00,2013-03-19 11:29:00,
2013-03-19 06:37:00,50.6,43.7,30.00,ENE,63,6.0,6.0,77,0.00,,---,0.00,0.00,VWS V14.00,2013-03-19 11:37:00,
2013-03-19 06:46:00,50.5,42.9,30.00,ENE,71,3.0,6.0,75,0.00,,---,0.00,0.00,VWS V14.00,2013-03-19 11:46:00,
2013-03-19 06:54:00,50.4,43.5,30.00,ENE,73,1.0,6.0,77,0.00,,---,0.00,0.00,VWS V14.00,2013-03-19 11:54:00,
2013-03-19 07:02:00,50.1,43.5,30.00,ENE,63,6.0,6.0,78,0.00,,---,0.00,0.00,VWS V14.00,2013-03-19 12:02:00,
2013-03-19 07:10:00,50.0,43.4,30.00,ENE,71,5.0,6.0,78,0.00,,---,0.00,0.00,VWS V14.00,2013-03-19 12:10:00,
2013-03-19 07:18:00,50.2,44.0,30.00,ENE,69,5.0,7.0,79,0.00,,---,0.00,0.00,VWS V14.00,2013-03-19 12:18:00,
2013-03-19 07:26:00,50.2,43.6,30.00,NE,52,1.0,7.0,78,0.00,,---,0.00,0.00,VWS V14.00,2013-03-19 12:26:00,
2013-03-19 07:34:00,50.1,43.5,30.02,East,79,2.0,8.0,78,0.00,,---,0.00,9.00,VWS V14.00,2013-03-19 12:34:00,
2013-03-19 07:42:00,50.1,43.8,30.02,East,86,5.0,8.0,79,0.00,,---,0.00,23.00,VWS V14.00,2013-03-19 12:42:00,
2013-03-19 07:51:00,50.0,43.8,30.02,ENE,67,6.0,9.0,79,0.00,,---,0.00,25.00,VWS V14.00,2013-03-19 12:51:00,
2013-03-19 07:59:00,50.0,43.4,30.02,East,83,5.0,9.0,78,0.00,,---,0.00,54.00,VWS V14.00,2013-03-19 12:59:00,
2013-03-19 08:04:00,49.9,43.7,30.02,ENE,78,2.0,10.0,79,0.00,,---,0.00,77.00,VWS V14.00,2013-03-19 13:04:00,
2013-03-19 08:11:00,49.7,43.8,30.02,ENE,74,2.0,8.0,80,0.00,,---,0.00,109.00,VWS V14.00,2013-03-19 13:11:00,
2013-03-19 08:19:00,49.7,43.5,30.03,East,94,2.0,8.0,79,0.00,,---,0.00,134.00,VWS V14.00,2013-03-19 13:19:00,
2013-03-19 08:27:00,49.8,43.2,30.03,East,84,0.0,8.0,78,0.00,,---,0.00,102.00,VWS V14.00,2013-03-19 13:27:00,
2013-03-19 08:34:00,49.8,43.6,30.05,ENE,70,4.0,8.0,79,0.00,,---,0.00,114.00,VWS V14.00,2013-03-19 13:34:00,
2013-03-19 08:39:00,50.1,43.5,30.05,ENE,71,4.0,6.0,78,0.00,,---,0.00,200.00,VWS V14.00,2013-03-19 13:39:00,
2013-03-19 08:47:00,50.5,43.9,30.05,ENE,71,5.0,6.0,78,0.00,,---,0.00,265.00,VWS V14.00,2013-03-19 13:47:00,
2013-03-19 08:55:00,50.7,44.4,30.06,ENE,71,4.0,6.0,79,0.00,,---,0.00,114.00,VWS V14.00,2013-03-19 13:55:00,
2013-03-19 09:03:00,51.0,44.4,30.07,ENE,70,5.0,6.0,78,0.00,,---,0.00,149.00,VWS V14.00,2013-03-19 14:03:00,
2013-03-19 09:11:00,51.4,44.8,30.07,ENE,78,3.0,7.0,78,0.00,,---,0.00,264.00,VWS V14.00,2013-03-19 14:11:00,
2013-03-19 09:19:00,52.2,45.6,30.07,ENE,71,4.0,7.0,78,0.00,,---,0.00,399.00,VWS V14.00,2013-03-19 14:19:00,
2013-03-19 09:28:00,52.4,45.4,30.07,ENE,75,6.0,7.0,77,0.00,,---,0.00,171.00,VWS V14.00,2013-03-19 14:28:00,
2013-03-19 09:34:00,52.7,45.4,30.08,ENE,65,6.0,7.0,76,0.00,,---,0.00,359.00,VWS V14.00,2013-03-19 14:34:00,
2013-03-19 09:40:00,53.0,45.3,30.08,East,91,3.0,6.0,75,0.00,,---,0.00,308.00,VWS V14.00,2013-03-19 14:40:00,
2013-03-19 09:48:00,53.6,45.2,30.08,East,82,7.0,7.0,73,0.00,,---,0.00,155.00,VWS V14.00,2013-03-19 14:48:00,
2013-03-19 09:56:00,54.8,44.8,30.08,ENE,63,4.0,9.0,69,0.00,,---,0.00,499.00,VWS V14.00,2013-03-19 14:56:00,
2013-03-19 10:04:00,55.3,43.8,30.09,East,98,4.0,11.0,65,0.00,,---,0.00,397.00,VWS V14.00,2013-03-19 15:04:00,
2013-03-19 10:12:00,55.6,43.6,30.09,East,97,8.0,9.0,64,0.00,,---,0.00,531.00,VWS V14.00,2013-03-19 15:12:00,
2013-03-19 10:20:00,55.9,43.5,30.09,ESE,105,4.0,10.0,63,0.00,,---,0.00,548.00,VWS V14.00,2013-03-19 15:20:00,
2013-03-19 10:28:00,56.3,43.9,30.09,ESE,103,5.0,10.0,63,0.00,,---,0.00,571.00,VWS V14.00,2013-03-19 15:28:00,
2013-03-19 10:34:00,56.5,43.7,30.08,East,101,6.0,10.0,62,0.00,,---,0.00,584.00,VWS V14.00,2013-03-19 15:34:00,
2013-03-19 10:40:00,56.8,44.3,30.08,ENE,64,6.0,7.0,63,0.00,,---,0.00,610.00,VWS V14.00,2013-03-19 15:40:00,
2013-03-19 10:48:00,57.3,44.0,30.08,East,100,3.0,7.0,61,0.00,,---,0.00,629.00,VWS V14.00,2013-03-19 15:48:00,
2013-03-19 10:57:00,57.7,43.9,30.08,ENE,66,7.0,8.0,60,0.00,,---,0.00,657.00,VWS V14.00,2013-03-19 15:57:00,
2013-03-19 11:04:00,58.2,42.6,30.08,East,92,4.0,8.0,56,0.00,,---,0.00,522.00,VWS V14.00,2013-03-19 16:04:00,
2013-03-19 11:13:00,59.3,41.7,30.08,East,84,3.0,8.0,52,0.00,,---,0.00,701.00,VWS V14.00,2013-03-19 16:13:00,
2013-03-19 11:21:00,60.2,42.5,30.07,ESE,107,10.0,13.0,52,0.00,,---,0.00,712.00,VWS V14.00,2013-03-19 16:21:00,
2013-03-19 11:29:00,59.8,43.1,30.07,ENE,72,2.0,13.0,54,0.00,,---,0.00,731.00,VWS V14.00,2013-03-19 16:29:00,
2013-03-19 11:34:00,59.9,41.2,30.06,ESE,103,6.0,13.0,50,0.00,,---,0.00,738.00,VWS V14.00,2013-03-19 16:34:00,
2013-03-19 11:41:00,60.7,43.5,30.06,East,86,2.0,9.0,53,0.00,,---,0.00,759.00,VWS V14.00,2013-03-19 16:41:00,
2013-03-19 11:49:00,60.5,41.8,30.06,East,87,5.0,12.0,50,0.00,,---,0.00,728.00,VWS V14.00,2013-03-19 16:49:00,
2013-03-19 11:57:00,61.0,43.8,30.06,East,80,4.0,12.0,53,0.00,,---,0.00,819.00,VWS V14.00,2013-03-19 16:57:00,
2013-03-19 12:04:00,61.0,43.8,30.05,ENE,72,9.0,12.0,53,0.00,,---,0.00,527.00,VWS V14.00,2013-03-19 17:04:00,
2013-03-19 12:09:00,61.1,42.3,30.05,East,90,2.0,9.0,50,0.00,,---,0.00,701.00,VWS V14.00,2013-03-19 17:09:00,
2013-03-19 12:17:00,62.0,43.2,30.05,East,81,3.0,10.0,50,0.00,,---,0.00,817.00,VWS V14.00,2013-03-19 17:17:00,
2013-03-19 12:25:00,62.8,42.3,30.05,ENE,74,6.0,10.0,47,0.00,,---,0.00,745.00,VWS V14.00,2013-03-19 17:25:00,
2013-03-19 12:33:00,62.7,42.8,30.04,ENE,67,7.0,10.0,48,0.00,,---,0.00,824.00,VWS V14.00,2013-03-19 17:33:00,
2013-03-19 12:42:00,62.9,41.3,30.04,East,100,2.0,10.0,45,0.00,,---,0.00,830.00,VWS V14.00,2013-03-19 17:42:00,
2013-03-19 12:50:00,63.1,44.2,30.03,ENE,70,6.0,10.0,50,0.00,,---,0.00,721.00,VWS V14.00,2013-03-19 17:50:00,
2013-03-19 12:58:00,63.6,41.9,30.03,East,99,2.0,10.0,45,0.00,,---,0.00,877.00,VWS V14.00,2013-03-19 17:58:00,
2013-03-19 13:04:00,64.1,44.6,30.02,ENE,67,1.0,10.0,49,0.00,,---,0.00,861.00,VWS V14.00,2013-03-19 18:04:00,
2013-03-19 13:10:00,64.4,43.2,30.02,ENE,71,5.0,5.0,46,0.00,,---,0.00,849.00,VWS V14.00,2013-03-19 18:10:00,
2013-03-19 13:18:00,64.5,41.5,30.03,ENE,76,3.0,6.0,43,0.00,,---,0.00,851.00,VWS V14.00,2013-03-19 18:18:00,
2013-03-19 13:26:00,64.7,40.5,30.03,ENE,78,4.0,6.0,41,0.00,,---,0.00,860.00,VWS V14.00,2013-03-19 18:26:00,
2013-03-19 13:34:00,65.2,43.9,30.02,ENE,76,4.0,6.0,46,0.00,,---,0.00,858.00,VWS V14.00,2013-03-19 18:34:00,
2013-03-19 13:42:00,64.9,42.5,30.02,East,85,6.0,8.0,44,0.00,,---,0.00,821.00,VWS V14.00,2013-03-19 18:42:00,
2013-03-19 13:50:00,66.0,45.8,30.01,ENE,60,1.0,8.0,48,0.00,,---,0.00,838.00,VWS V14.00,2013-03-19 18:50:00,
2013-03-19 13:58:00,67.3,42.8,30.01,ENE,71,4.0,8.0,41,0.00,,---,0.00,861.00,VWS V14.00,2013-03-19 18:58:00,
2013-03-19 14:04:00,66.8,45.9,30.00,ENE,63,1.0,8.0,47,0.00,,---,0.00,896.00,VWS V14.00,2013-03-19 19:04:00,
2013-03-19 14:11:00,65.8,45.0,30.00,ENE,77,3.0,4.0,47,0.00,,---,0.00,795.00,VWS V14.00,2013-03-19 19:11:00,
2013-03-19 14:19:00,67.0,45.0,30.00,North,11,2.0,6.0,45,0.00,,---,0.00,896.00,VWS V14.00,2013-03-19 19:19:00,
2013-03-19 14:27:00,67.1,43.9,30.00,ENE,78,1.0,6.0,43,0.00,,---,0.00,840.00,VWS V14.00,2013-03-19 19:27:00,
2013-03-19 14:34:00,66.8,42.4,29.99,ENE,62,2.0,6.0,41,0.00,,---,0.00,570.00,VWS V14.00,2013-03-19 19:34:00,
2013-03-19 14:39:00,67.0,44.4,29.99,NE,54,2.0,4.0,44,0.00,,---,0.00,622.00,VWS V14.00,2013-03-19 19:39:00,
2013-03-19 14:47:00,67.4,43.5,29.99,NE,41,0.0,6.0,42,0.00,,---,0.00,436.00,VWS V14.00,2013-03-19 19:47:00,
2013-03-19 14:55:00,67.8,42.0,29.98,East,82,3.0,6.0,39,0.00,,---,0.00,610.00,VWS V14.00,2013-03-19 19:55:00,
2013-03-19 15:03:00,66.6,44.0,29.97,ENE,76,4.0,7.0,44,0.00,,---,0.00,396.00,VWS V14.00,2013-03-19 20:03:00,
2013-03-19 15:11:00,66.9,43.1,29.97,ENE,70,6.0,6.0,42,0.00,,---,0.00,454.00,VWS V14.00,2013-03-19 20:11:00,
2013-03-19 15:19:00,66.6,42.2,29.96,East,86,4.0,6.0,41,0.00,,---,0.00,422.00,VWS V14.00,2013-03-19 20:19:00,
2013-03-19 15:27:00,66.7,42.3,29.96,NNE,33,1.0,7.0,41,0.00,,---,0.00,341.00,VWS V14.00,2013-03-19 20:27:00,
2013-03-19 15:34:00,66.4,43.8,29.96,ENE,65,4.0,7.0,44,0.00,,---,0.00,341.00,VWS V14.00,2013-03-19 20:34:00,
2013-03-19 15:39:00,66.1,42.4,29.96,ENE,68,2.0,5.0,42,0.00,,---,0.00,345.00,VWS V14.00,2013-03-19 20:39:00,
2013-03-19 15:48:00,66.1,47.5,29.96,ENE,71,2.0,5.0,51,0.00,,---,0.00,302.00,VWS V14.00,2013-03-19 20:48:00,
2013-03-19 15:56:00,65.8,46.7,29.96,ENE,70,0.0,5.0,50,0.00,,---,0.00,258.00,VWS V14.00,2013-03-19 20:56:00,
2013-03-19 16:04:00,66.3,44.3,29.95,ENE,76,3.0,5.0,45,0.00,,---,0.00,220.00,VWS V14.00,2013-03-19 21:04:00,
2013-03-19 16:12:00,65.2,45.0,29.95,East,86,4.0,6.0,48,0.00,,---,0.00,213.00,VWS V14.00,2013-03-19 21:12:00,
2013-03-19 16:20:00,65.3,45.1,29.95,NE,36,1.0,6.0,48,0.00,,---,0.00,243.00,VWS V14.00,2013-03-19 21:20:00,
2013-03-19 16:28:00,65.7,44.9,29.95,ENE,60,0.0,6.0,47,0.00,,---,0.00,225.00,VWS V14.00,2013-03-19 21:28:00,
2013-03-19 16:34:00,65.4,46.3,29.96,ENE,65,2.0,6.0,50,0.00,,---,0.00,200.00,VWS V14.00,2013-03-19 21:34:00,
2013-03-19 16:40:00,64.7,45.7,29.96,ENE,70,1.0,4.0,50,0.00,,---,0.00,171.00,VWS V14.00,2013-03-19 21:40:00,
2013-03-19 16:48:00,64.8,46.8,29.96,ENE,69,0.0,4.0,52,0.00,,---,0.00,178.00,VWS V14.00,2013-03-19 21:48:00,
2013-03-19 16:56:00,65.1,46.5,29.96,ENE,72,2.0,4.0,51,0.00,,---,0.00,183.00,VWS V14.00,2013-03-19 21:56:00,
2013-03-19 17:04:00,64.9,45.3,29.96,ENE,71,0.0,4.0,49,0.00,,---,0.00,213.00,VWS V14.00,2013-03-19 22:04:00,
2013-03-19 17:12:00,64.6,46.6,29.96,ENE,71,1.0,4.0,52,0.00,,---,0.00,174.00,VWS V14.00,2013-03-19 22:12:00,
2013-03-19 17:21:00,64.1,47.1,29.97,ENE,69,3.0,4.0,54,0.00,,---,0.00,155.00,VWS V14.00,2013-03-19 22:21:00,
2013-03-19 17:29:00,64.3,45.8,29.97,ENE,77,1.0,5.0,51,0.00,,---,0.00,127.00,VWS V14.00,2013-03-19 22:29:00,
2013-03-19 17:34:00,64.4,46.4,29.96,ENE,77,3.0,5.0,52,0.00,,---,0.00,134.00,VWS V14.00,2013-03-19 22:34:00,
2013-03-19 17:41:00,64.0,48.0,29.96,ENE,72,3.0,5.0,56,0.00,,---,0.00,116.00,VWS V14.00,2013-03-19 22:41:00,
2013-03-19 17:49:00,64.2,46.2,29.96,ENE,71,1.0,5.0,52,0.00,,---,0.00,95.00,VWS V14.00,2013-03-19 22:49:00,
2013-03-19 17:57:00,63.4,48.4,29.96,ENE,71,3.0,5.0,58,0.00,,---,0.00,91.00,VWS V14.00,2013-03-19 22:57:00,
2013-03-19 18:04:00,63.4,47.5,29.96,East,79,1.0,5.0,56,0.00,,---,0.00,67.00,VWS V14.00,2013-03-19 23:04:00,
2013-03-19 18:09:00,63.1,48.1,29.96,ENE,73,0.0,3.0,58,0.00,,---,0.00,69.00,VWS V14.00,2013-03-19 23:09:00,
2013-03-19 18:17:00,63.0,48.0,29.96,ENE,65,2.0,3.0,58,0.00,,---,0.00,53.00,VWS V14.00,2013-03-19 23:17:00,
2013-03-19 18:25:00,63.2,46.8,29.97,ENE,57,1.0,3.0,55,0.00,,---,0.00,54.00,VWS V14.00,2013-03-19 23:25:00,
2013-03-19 18:33:00,62.9,49.3,29.97,ENE,73,1.0,3.0,61,0.00,,---,0.00,40.00,VWS V14.00,2013-03-19 23:33:00,
2013-03-19 18:46:00,62.4,47.5,29.97,ENE,71,0.0,3.0,58,0.00,,---,0.00,33.00,VWS V14.00,2013-03-19 23:46:00,
2013-03-19 18:54:00,62.2,48.6,29.98,ENE,71,0.0,3.0,61,0.00,,---,0.00,28.00,VWS V14.00,2013-03-19 23:54:00,
2013-03-19 19:02:00,62.5,46.6,29.98,ENE,71,0.0,3.0,56,0.00,,---,0.00,23.00,VWS V14.00,2013-03-20 00:02:00,
2013-03-19 19:10:00,62.6,45.2,29.98,ENE,70,0.0,0.0,53,0.00,,---,0.00,11.00,VWS V14.00,2013-03-20 00:10:00,
2013-03-19 19:18:00,62.3,45.5,29.98,ENE,70,0.0,1.0,54,0.00,,---,0.00,9.00,VWS V14.00,2013-03-20 00:18:00,
2013-03-19 19:26:00,62.2,44.9,29.99,NE,38,2.0,2.0,53,0.00,,---,0.00,0.00,VWS V14.00,2013-03-20 00:26:00,
2013-03-19 19:34:00,62.2,43.9,30.00,North,5,2.0,3.0,51,0.00,,---,0.00,0.00,VWS V14.00,2013-03-20 00:34:00,
2013-03-19 19:42:00,62.2,43.9,30.00,North,355,3.0,4.0,51,0.00,,---,0.00,0.00,VWS V14.00,2013-03-20 00:42:00,
2013-03-19 19:50:00,62.2,42.3,30.01,NNW,347,2.0,4.0,48,0.00,,---,0.00,0.00,VWS V14.00,2013-03-20 00:50:00,
2013-03-19 19:58:00,62.2,42.3,30.01,NNE,33,1.0,6.0,48,0.00,,---,0.00,0.00,VWS V14.00,2013-03-20 00:58:00,
2013-03-19 20:04:00,62.1,42.2,30.00,ENE,69,4.0,6.0,48,0.00,,---,0.00,0.00,VWS V14.00,2013-03-20 01:04:00,
2013-03-19 20:11:00,61.8,41.9,30.00,NNE,19,3.0,5.0,48,0.00,,---,0.00,0.00,VWS V14.00,2013-03-20 01:11:00,
2013-03-19 20:19:00,61.9,42.0,30.01,NE,48,1.0,5.0,48,0.00,,---,0.00,0.00,VWS V14.00,2013-03-20 01:19:00,
2013-03-19 20:27:00,61.8,40.8,30.01,NE,53,1.0,5.0,46,0.00,,---,0.00,0.00,VWS V14.00,2013-03-20 01:27:00,
2013-03-19 20:34:00,61.8,41.4,30.01,NE,36,1.0,7.0,47,0.00,,---,0.00,0.00,VWS V14.00,2013-03-20 01:34:00,
2013-03-19 20:39:00,61.6,42.3,30.01,NNE,30,2.0,3.0,49,0.00,,---,0.00,0.00,VWS V14.00,2013-03-20 01:39:00,
2013-03-19 20:47:00,61.4,42.1,30.01,NE,46,0.0,4.0,49,0.00,,---,0.00,0.00,VWS V14.00,2013-03-20 01:47:00,
2013-03-19 20:55:00,61.1,41.3,30.02,NE,39,2.0,4.0,48,0.00,,---,0.00,0.00,VWS V14.00,2013-03-20 01:55:00,
2013-03-19 21:03:00,61.1,41.8,30.03,NNE,29,2.0,6.0,49,0.00,,---,0.00,0.00,VWS V14.00,2013-03-20 02:03:00,
2013-03-19 21:11:00,60.9,41.6,30.03,ENE,57,3.0,4.0,49,0.00,,---,0.00,0.00,VWS V14.00,2013-03-20 02:11:00,
2013-03-19 21:19:00,60.8,39.9,30.04,NNE,20,3.0,6.0,46,0.00,,---,0.00,0.00,VWS V14.00,2013-03-20 02:19:00,
2013-03-19 21:27:00,60.7,39.8,30.04,NE,43,1.0,7.0,46,0.00,,---,0.00,0.00,VWS V14.00,2013-03-20 02:27:00,
2013-03-19 21:34:00,60.3,41.1,30.03,ENE,68,4.0,7.0,49,0.00,,---,0.00,0.00,VWS V14.00,2013-03-20 02:34:00,
2013-03-19 21:40:00,60.2,40.5,30.03,NE,53,3.0,6.0,48,0.00,,---,0.00,0.00,VWS V14.00,2013-03-20 02:40:00,
2013-03-19 21:48:00,59.9,41.8,30.03,ENE,63,7.0,7.0,51,0.00,,---,0.00,0.00,VWS V14.00,2013-03-20 02:48:00,
2013-03-19 21:56:00,59.7,41.0,30.02,NNE,22,4.0,7.0,50,0.00,,---,0.00,0.00,VWS V14.00,2013-03-20 02:56:00,
2013-03-19 22:04:00,59.8,40.6,30.03,North,360,2.0,9.0,49,0.00,,---,0.00,0.00,VWS V14.00,2013-03-20 03:04:00,
2013-03-19 22:12:00,59.6,40.4,30.03,ENE,58,3.0,6.0,49,0.00,,---,0.00,0.00,VWS V14.00,2013-03-20 03:12:00,
2013-03-19 22:20:00,59.5,40.3,30.03,ENE,57,6.0,6.0,49,0.00,,---,0.00,0.00,VWS V14.00,2013-03-20 03:20:00,
2013-03-19 22:28:00,59.5,40.9,30.03,NE,54,3.0,6.0,50,0.00,,---,0.00,0.00,VWS V14.00,2013-03-20 03:28:00,
2013-03-19 22:34:00,59.4,40.2,30.06,NE,55,9.0,9.0,49,0.00,,---,0.00,0.00,VWS V14.00,2013-03-20 03:34:00,
2013-03-19 22:40:00,59.3,40.7,30.06,NNE,29,2.0,9.0,50,0.00,,---,0.00,0.00,VWS V14.00,2013-03-20 03:40:00,
2013-03-19 22:48:00,59.1,40.5,30.08,NE,36,2.0,9.0,50,0.00,,---,0.00,0.00,VWS V14.00,2013-03-20 03:48:00,
2013-03-19 22:57:00,59.1,39.5,30.08,North,360,0.0,9.0,48,0.00,,---,0.00,0.00,VWS V14.00,2013-03-20 03:57:00,
2013-03-19 23:01:00,59.0,39.4,30.08,North,9,0.0,9.0,48,0.00,,---,0.00,0.00,VWS V14.00,2013-03-20 04:01:00,
2013-03-19 23:04:00,59.1,39.5,30.10,NE,55,0.0,9.0,48,0.00,,---,0.00,0.00,VWS V14.00,2013-03-20 04:04:00,
2013-03-19 23:09:00,59.2,39.0,30.10,NE,43,0.0,1.0,47,0.00,,---,0.00,0.00,VWS V14.00,2013-03-20 04:09:00,
2013-03-19 23:13:00,59.1,41.5,30.10,NE,43,0.0,1.0,52,0.00,,---,0.00,0.00,VWS V14.00,2013-03-20 04:13:00,
2013-03-19 23:25:00,58.6,42.5,30.10,NE,50,0.0,2.0,55,0.00,,---,0.00,0.00,VWS V14.00,2013-03-20 04:25:00,
2013-03-19 23:33:00,58.1,43.4,30.10,NE,50,0.0,2.0,58,0.00,,---,0.00,0.00,VWS V14.00,2013-03-20 04:33:00,
2013-03-19 23:45:00,58.2,44.4,30.09,ENE,76,1.0,2.0,60,0.00,,---,0.00,0.00,VWS V14.00,2013-03-20 04:45:00,
2013-03-19 23:53:00,58.2,44.4,30.09,ENE,71,0.0,3.0,60,0.00,,---,0.00,0.00,VWS V14.00,2013-03-20 04:53:00,